Time;durP1;ratioP1;P1;durP2;ratioP2;P2;SDS_P1;SDS_P2;PMS_P1;PMS_P2;Temp;Humidity;BMP_temperature;BMP_pressure;BME280_temperature;BME280_humidity;BME280_pressure;Samples;Min_cycle;Max_cycle;Signal;HPM_P1;HPM_P2
2021/05/31 00:02:03;;;;;;;3.00;1.85;;;14.70;87.00;;;;;;5073122;28;20036;-72
2021/05/31 00:04:30;;;;;;;3.03;1.67;;;14.70;87.30;;;;;;5090506;28;20111;-73
2021/05/31 00:07:03;;;;;;;5.47;1.73;;;14.70;87.20;;;;;;5081342;28;20032;-73
2021/05/31 00:09:31;;;;;;;3.38;1.98;;;14.80;87.30;;;;;;5088601;28;20045;-73
2021/05/31 00:11:57;;;;;;;2.65;1.90;;;14.80;87.20;;;;;;5072396;28;20039;-72
2021/05/31 00:14:23;;;;;;;2.28;1.52;;;14.80;87.10;;;;;;5073204;28;20036;-72
2021/05/31 00:16:49;;;;;;;2.78;1.80;;;14.90;86.70;;;;;;5072532;28;20020;-73
2021/05/31 00:19:15;;;;;;;4.43;2.22;;;14.80;86.50;;;;;;5088281;28;20047;-74
2021/05/31 00:21:44;;;;;;;2.92;1.85;;;14.80;86.50;;;;;;5082833;28;20035;-72
2021/05/31 00:24:09;;;;;;;3.35;1.75;;;14.80;86.00;;;;;;5077723;28;20082;-72
2021/05/31 00:26:35;;;;;;;4.85;1.90;;;14.80;85.80;;;;;;5070920;28;20032;-72
2021/05/31 00:29:01;;;;;;;3.22;2.00;;;14.80;85.70;;;;;;5072715;28;20463;-72
2021/05/31 00:31:27;;;;;;;3.70;2.15;;;14.80;85.70;;;;;;5071124;28;20502;-72
2021/05/31 00:33:52;;;;;;;4.72;2.70;;;14.90;85.40;;;;;;5081086;28;20452;-73
2021/05/31 00:36:18;;;;;;;5.85;2.65;;;14.80;85.40;;;;;;5080439;28;20795;-73
2021/05/31 00:38:44;;;;;;;3.78;2.20;;;14.80;85.60;;;;;;5079760;28;20037;-73
2021/05/31 00:41:10;;;;;;;4.07;2.20;;;14.80;85.60;;;;;;5089065;28;20048;-73
2021/05/31 00:43:36;;;;;;;3.78;2.50;;;14.80;85.60;;;;;;5072364;28;20028;-73
2021/05/31 00:46:09;;;;;;;5.72;2.58;;;14.80;85.80;;;;;;5079105;28;20458;-73
2021/05/31 00:48:36;;;;;;;2.45;1.60;;;14.80;85.70;;;;;;5071698;28;20527;-74
2021/05/31 00:51:04;;;;;;;4.20;2.13;;;14.80;85.70;;;;;;5076468;28;20455;-73
2021/05/31 00:53:30;;;;;;;2.50;1.80;;;14.80;85.60;;;;;;5080629;28;20114;-73
2021/05/31 00:55:57;;;;;;;3.80;2.05;;;14.80;86.20;;;;;;5072562;28;20039;-73
2021/05/31 00:58:27;;;;;;;3.17;1.92;;;14.80;85.30;;;;;;5071593;28;20024;-73
2021/05/31 01:00:53;;;;;;;2.95;1.50;;;14.80;85.20;;;;;;5078492;28;20028;-73
2021/05/31 01:03:19;;;;;;;3.13;1.52;;;14.80;85.10;;;;;;5072539;28;20471;-73
2021/05/31 01:05:46;;;;;;;2.63;1.83;;;14.80;84.80;;;;;;5072781;28;20065;-73
2021/05/31 01:08:23;;;;;;;8.45;1.85;;;14.80;84.70;;;;;;5072560;28;20067;-73
2021/05/31 01:10:49;;;;;;;2.00;1.35;;;14.80;84.60;;;;;;5073241;28;20412;-73
2021/05/31 01:13:27;;;;;;;3.65;1.80;;;14.80;84.60;;;;;;5080443;28;20033;-73
2021/05/31 01:16:05;;;;;;;4.38;1.55;;;14.80;84.80;;;;;;5073492;28;20021;-73
2021/05/31 01:18:43;;;;;;;2.95;1.70;;;14.90;84.70;;;;;;5082877;28;20039;-73
2021/05/31 01:21:30;;;;;;;3.97;1.77;;;14.90;84.10;;;;;;5071288;28;20070;-73
2021/05/31 01:24:12;;;;;;;1.85;1.50;;;14.90;83.90;;;;;;5072184;28;20036;-73
2021/05/31 01:26:46;;;;;;;2.58;1.60;;;14.90;83.70;;;;;;5084822;28;20025;-73
2021/05/31 01:29:13;;;;;;;3.50;1.47;;;14.90;83.30;;;;;;5076500;28;20067;-73
2021/05/31 01:32:00;;;;;;;2.20;1.60;;;14.90;82.80;;;;;;5085646;28;20098;-71
2021/05/31 01:34:29;;;;;;;2.05;1.50;;;14.90;82.70;;;;;;5071448;28;20033;-76
2021/05/31 01:37:10;;;;;;;2.40;1.40;;;14.90;83.00;;;;;;5074305;28;20449;-71
2021/05/31 01:39:39;;;;;;;2.08;1.40;;;14.90;82.80;;;;;;5090179;28;20032;-72
2021/05/31 01:42:06;;;;;;;4.72;1.52;;;14.90;83.00;;;;;;5084297;28;20410;-71
2021/05/31 01:44:33;;;;;;;1.80;1.38;;;14.90;83.10;;;;;;5075904;28;20450;-71
2021/05/31 01:46:59;;;;;;;2.42;1.48;;;14.90;82.90;;;;;;5075328;28;20482;-71
2021/05/31 01:49:25;;;;;;;3.08;1.60;;;14.90;82.80;;;;;;5078988;28;20024;-71
2021/05/31 01:51:52;;;;;;;3.45;1.60;;;14.90;83.00;;;;;;5080673;28;20020;-71
2021/05/31 01:54:19;;;;;;;3.22;1.80;;;14.90;82.60;;;;;;5088954;28;20432;-71
2021/05/31 01:56:48;;;;;;;3.55;1.80;;;14.90;82.10;;;;;;5077746;28;20021;-71
2021/05/31 01:59:15;;;;;;;2.75;1.60;;;14.90;82.60;;;;;;5075645;28;20021;-72
2021/05/31 02:01:40;;;;;;;2.40;1.45;;;14.80;82.90;;;;;;5089125;28;20025;-75
2021/05/31 02:04:07;;;;;;;2.65;1.50;;;14.80;82.10;;;;;;5086197;28;20423;-71
2021/05/31 02:06:32;;;;;;;2.40;1.58;;;14.80;82.10;;;;;;5076516;28;20029;-71
2021/05/31 02:08:58;;;;;;;3.00;1.75;;;14.80;82.30;;;;;;5075158;28;20024;-71
2021/05/31 02:11:54;;;;;;;3.10;1.80;;;14.80;82.30;;;;;;5074693;28;20025;-71
2021/05/31 02:14:29;;;;;;;2.13;1.30;;;14.80;82.60;;;;;;5078518;28;20043;-72
2021/05/31 02:17:08;;;;;;;2.78;1.50;;;14.80;82.90;;;;;;5076714;28;20021;-71
2021/05/31 02:19:37;;;;;;;3.30;1.70;;;14.80;82.90;;;;;;5077117;28;20118;-71
2021/05/31 02:22:06;;;;;;;3.22;1.88;;;14.80;82.90;;;;;;5081721;28;20025;-70
2021/05/31 02:24:34;;;;;;;3.58;1.60;;;14.80;82.70;;;;;;5072971;28;20024;-71
2021/05/31 02:27:02;;;;;;;2.70;1.50;;;14.80;82.80;;;;;;5074965;28;20344;-71
2021/05/31 02:29:28;;;;;;;3.25;1.40;;;14.80;83.00;;;;;;5075369;28;20029;-71
2021/05/31 02:31:54;;;;;;;2.45;1.33;;;14.80;82.70;;;;;;5087898;28;20121;-71
2021/05/31 02:34:20;;;;;;;3.00;1.40;;;14.80;82.40;;;;;;5074861;28;20028;-71
2021/05/31 02:36:48;;;;;;;2.58;1.50;;;14.80;82.00;;;;;;5078084;28;20043;-71
2021/05/31 02:39:15;;;;;;;3.40;1.67;;;14.80;82.00;;;;;;5079208;28;20112;-70
2021/05/31 02:41:40;;;;;;;3.67;1.60;;;14.70;82.40;;;;;;5080509;28;20479;-70
2021/05/31 02:44:06;;;;;;;2.30;1.65;;;14.70;82.80;;;;;;5074686;28;20048;-71
2021/05/31 02:46:32;;;;;;;3.08;1.60;;;14.70;83.30;;;;;;5080754;28;20032;-71
2021/05/31 02:48:57;;;;;;;3.97;1.58;;;14.80;83.80;;;;;;5072487;28;20020;-71
2021/05/31 02:51:23;;;;;;;2.03;1.33;;;14.90;84.40;;;;;;5074337;28;20477;-71
2021/05/31 02:53:49;;;;;;;1.77;1.50;;;15.10;85.40;;;;;;5079782;28;20127;-71
2021/05/31 02:56:14;;;;;;;3.03;1.50;;;15.40;85.20;;;;;;5087988;28;20021;-72
2021/05/31 02:58:42;;;;;;;1.95;1.52;;;15.70;83.70;;;;;;5089368;28;20052;-71
2021/05/31 03:01:08;;;;;;;2.13;1.33;;;15.80;82.10;;;;;;5074307;28;20036;-71
2021/05/31 03:03:34;;;;;;;2.33;1.40;;;15.80;81.00;;;;;;5074142;28;20028;-71
2021/05/31 03:06:00;;;;;;;4.72;1.92;;;15.70;80.80;;;;;;5087094;28;20028;-71
2021/05/31 03:08:26;;;;;;;3.53;1.75;;;15.90;81.50;;;;;;5088534;28;20375;-74
2021/05/31 03:10:53;;;;;;;3.33;2.42;;;15.90;80.70;;;;;;5080241;28;20029;-74
2021/05/31 03:13:20;;;;;;;4.30;2.90;;;15.80;80.50;;;;;;5085904;28;20550;-70
2021/05/31 03:15:47;;;;;;;4.03;2.35;;;15.70;80.10;;;;;;5081169;28;20368;-71
2021/05/31 03:18:12;;;;;;;5.13;2.20;;;15.60;80.40;;;;;;5075796;28;20021;-70
2021/05/31 03:20:38;;;;;;;4.15;2.20;;;15.50;80.70;;;;;;5081462;28;20074;-71
2021/05/31 03:23:04;;;;;;;3.80;2.00;;;15.40;80.90;;;;;;5073728;28;20021;-71
2021/05/31 03:25:30;;;;;;;4.28;2.38;;;15.40;81.20;;;;;;5074440;28;20542;-70
2021/05/31 03:27:58;;;;;;;4.55;2.38;;;15.30;81.50;;;;;;5072781;28;20035;-70
2021/05/31 03:30:23;;;;;;;4.63;2.50;;;15.30;82.00;;;;;;5073864;28;20048;-70
2021/05/31 03:32:49;;;;;;;3.70;2.22;;;15.30;82.20;;;;;;5083301;28;20515;-71
2021/05/31 03:35:15;;;;;;;6.47;2.40;;;15.20;82.40;;;;;;5074316;28;20039;-70
2021/05/31 03:37:44;;;;;;;3.72;2.40;;;15.30;82.70;;;;;;5078880;28;20028;-72
2021/05/31 03:40:12;;;;;;;3.75;2.22;;;15.30;83.00;;;;;;5079120;28;20117;-73
2021/05/31 03:42:39;;;;;;;3.70;2.25;;;15.30;82.60;;;;;;5091006;28;20024;-72
2021/05/31 03:45:07;;;;;;;5.40;2.20;;;15.30;82.10;;;;;;5092035;28;20041;-74
2021/05/31 03:47:33;;;;;;;4.95;2.50;;;15.30;82.20;;;;;;5074725;28;20028;-73
2021/05/31 03:49:58;;;;;;;4.38;2.60;;;15.30;82.30;;;;;;5072112;28;20390;-72
2021/05/31 03:52:24;;;;;;;5.32;2.55;;;15.30;82.10;;;;;;5089085;28;20043;-74
2021/05/31 03:54:50;;;;;;;3.65;2.33;;;15.30;82.60;;;;;;5089387;28;20024;-74
2021/05/31 03:57:16;;;;;;;3.22;2.17;;;15.30;82.60;;;;;;5087810;28;20028;-74
2021/05/31 03:59:42;;;;;;;3.92;2.38;;;15.30;82.50;;;;;;5091053;28;20020;-75
2021/05/31 04:02:08;;;;;;;4.47;2.20;;;15.30;82.70;;;;;;5088714;28;20028;-73
2021/05/31 04:04:42;;;;;;;3.72;2.50;;;15.30;82.90;;;;;;5087023;28;20484;-73
2021/05/31 04:12:36;;;;;;;5.50;2.45;;;15.40;82.90;;;;;;5086101;28;20086;-74
2021/05/31 04:15:03;;;;;;;4.78;2.50;;;15.40;82.90;;;;;;5089802;28;20036;-72
2021/05/31 04:17:29;;;;;;;6.22;3.45;;;15.50;83.00;;;;;;5090802;28;20035;-72
2021/05/31 04:19:55;;;;;;;6.95;2.47;;;15.40;82.70;;;;;;5091344;28;20044;-72
2021/05/31 04:22:20;;;;;;;7.45;3.65;;;15.50;82.80;;;;;;5090907;28;20394;-72
2021/05/31 04:24:46;;;;;;;9.13;4.75;;;15.60;82.40;;;;;;5088971;28;20170;-71
2021/05/31 04:27:12;;;;;;;10.52;5.72;;;15.50;81.60;;;;;;5092398;28;20028;-73
2021/05/31 04:29:37;;;;;;;7.22;3.72;;;15.40;81.30;;;;;;5089114;28;20074;-73
2021/05/31 04:32:03;;;;;;;6.32;2.55;;;15.40;81.20;;;;;;5089924;28;20123;-73
2021/05/31 04:34:29;;;;;;;4.25;2.65;;;15.40;80.90;;;;;;5088862;28;20028;-73
2021/05/31 04:36:55;;;;;;;6.75;3.03;;;15.40;81.20;;;;;;5094210;28;20024;-72
2021/05/31 04:39:21;;;;;;;4.03;2.42;;;15.40;81.80;;;;;;5088891;28;20060;-73
2021/05/31 04:41:47;;;;;;;5.05;2.05;;;15.40;81.60;;;;;;5091863;28;20059;-74
2021/05/31 04:44:12;;;;;;;6.60;3.00;;;15.40;81.00;;;;;;5092476;28;20036;-72
2021/05/31 04:46:38;;;;;;;7.72;2.47;;;15.40;80.60;;;;;;5077000;28;20390;-73
2021/05/31 04:49:04;;;;;;;3.67;2.42;;;15.40;80.30;;;;;;5075565;28;21405;-72
2021/05/31 04:51:30;;;;;;;4.47;2.50;;;15.40;80.20;;;;;;5077714;28;20059;-72
2021/05/31 04:53:57;;;;;;;6.15;2.80;;;15.30;80.50;;;;;;5071845;28;20433;-73
2021/05/31 04:56:24;;;;;;;5.75;3.00;;;15.30;80.60;;;;;;5072211;28;20024;-73
2021/05/31 04:58:50;;;;;;;4.25;2.38;;;15.30;81.00;;;;;;5078189;28;20037;-72
2021/05/31 05:01:16;;;;;;;4.30;2.67;;;15.20;80.60;;;;;;5072474;28;20058;-72
2021/05/31 05:03:41;;;;;;;5.03;2.78;;;15.20;80.50;;;;;;5079710;28;20029;-72
2021/05/31 05:06:07;;;;;;;12.15;3.30;;;15.20;80.70;;;;;;5073067;28;20031;-76
2021/05/31 05:08:33;;;;;;;12.18;3.40;;;15.20;81.80;;;;;;5081962;28;20036;-73
2021/05/31 05:10:58;;;;;;;6.60;2.90;;;15.20;81.50;;;;;;5082619;28;20551;-68
2021/05/31 05:13:24;;;;;;;5.47;3.63;;;15.20;81.80;;;;;;5089576;28;20162;-74
2021/05/31 05:15:50;;;;;;;7.25;3.72;;;15.20;81.80;;;;;;5076745;28;20075;-72
2021/05/31 05:18:16;;;;;;;4.63;3.28;;;15.20;81.40;;;;;;5086217;28;20470;-70
2021/05/31 05:20:42;;;;;;;4.15;2.65;;;15.20;81.10;;;;;;5089804;28;20036;-69
2021/05/31 05:23:08;;;;;;;4.47;2.97;;;15.20;81.40;;;;;;5078311;28;20020;-70
2021/05/31 05:25:34;;;;;;;4.55;2.80;;;15.20;80.80;;;;;;5080583;28;20458;-70
2021/05/31 05:27:59;;;;;;;7.40;3.63;;;15.20;80.60;;;;;;5080534;28;20482;-69
2021/05/31 05:30:28;;;;;;;4.30;2.83;;;15.20;80.80;;;;;;5087702;28;20020;-74
2021/05/31 05:32:59;;;;;;;4.13;2.47;;;15.20;80.70;;;;;;5093210;28;20048;-71
2021/05/31 05:45:56;;;;;;;3.67;2.15;;;15.20;79.90;;;;;;5075773;28;20096;-69
2021/05/31 05:48:22;;;;;;;4.25;2.38;;;15.20;79.60;;;;;;5090587;28;20032;-72
2021/05/31 05:50:48;;;;;;;4.93;2.33;;;15.30;79.60;;;;;;5090511;28;20155;-70
2021/05/31 05:53:14;;;;;;;4.22;2.13;;;15.40;79.40;;;;;;5091782;28;20363;-71
2021/05/31 05:55:40;;;;;;;6.03;2.10;;;15.40;79.40;;;;;;5091787;28;20024;-73
2021/05/31 05:58:06;;;;;;;5.78;2.67;;;15.50;79.20;;;;;;5095232;28;20066;-73
2021/05/31 06:00:33;;;;;;;3.95;2.53;;;15.60;78.90;;;;;;5090401;28;20409;-71
2021/05/31 06:02:59;;;;;;;4.72;2.50;;;15.60;78.70;;;;;;5091891;28;20036;-72
2021/05/31 06:05:25;;;;;;;3.28;2.20;;;15.70;78.70;;;;;;5094552;28;20474;-71
2021/05/31 06:07:50;;;;;;;3.67;2.15;;;15.80;78.20;;;;;;5092338;28;20024;-71
2021/05/31 06:10:17;;;;;;;5.30;2.35;;;15.80;77.90;;;;;;5091787;28;20032;-71
2021/05/31 06:12:43;;;;;;;5.35;2.88;;;15.80;77.60;;;;;;5092651;28;20032;-71
2021/05/31 06:15:12;;;;;;;4.53;1.90;;;15.90;77.10;;;;;;5095341;28;20024;-71
2021/05/31 06:17:38;;;;;;;3.63;2.00;;;15.90;76.40;;;;;;5090648;28;20020;-71
2021/05/31 06:20:05;;;;;;;3.85;1.90;;;15.80;76.40;;;;;;5093144;28;20489;-71
2021/05/31 06:22:34;;;;;;;4.25;2.13;;;15.90;75.90;;;;;;5108741;28;20113;-72
2021/05/31 06:25:00;;;;;;;3.05;2.20;;;15.90;75.70;;;;;;5094503;28;20047;-71
2021/05/31 06:27:26;;;;;;;4.25;2.00;;;16.00;75.00;;;;;;5090855;28;20119;-71
2021/05/31 06:29:52;;;;;;;3.83;1.95;;;16.00;74.60;;;;;;5091409;28;20028;-71
2021/05/31 06:32:17;;;;;;;4.30;2.72;;;15.90;74.70;;;;;;5093679;28;20067;-75
2021/05/31 06:34:43;;;;;;;7.07;2.45;;;15.90;74.80;;;;;;5088296;28;20036;-72
2021/05/31 06:37:09;;;;;;;4.95;2.28;;;15.90;74.80;;;;;;5089950;28;20075;-76
2021/05/31 06:39:35;;;;;;;4.75;2.50;;;16.00;75.70;;;;;;5089346;28;20035;-77
2021/05/31 06:42:02;;;;;;;4.05;2.65;;;16.00;75.10;;;;;;5091370;28;20028;-79
2021/05/31 06:44:28;;;;;;;3.20;2.00;;;16.10;75.00;;;;;;5086243;28;20055;-77
2021/05/31 06:46:54;;;;;;;4.57;1.90;;;16.10;74.30;;;;;;5082415;28;20059;-78
2021/05/31 06:49:20;;;;;;;5.97;2.60;;;16.10;74.20;;;;;;5086510;28;20073;-72
2021/05/31 06:51:45;;;;;;;4.03;2.65;;;16.10;74.40;;;;;;5102457;28;20035;-79
2021/05/31 06:54:11;;;;;;;5.25;3.33;;;16.20;75.50;;;;;;5090415;28;20036;-75
2021/05/31 06:56:37;;;;;;;6.82;3.67;;;16.20;75.70;;;;;;5081112;28;20027;-77
2021/05/31 06:59:02;;;;;;;7.97;3.80;;;16.10;75.70;;;;;;5088039;28;20478;-78
2021/05/31 07:01:28;;;;;;;5.93;3.88;;;16.10;76.10;;;;;;5089722;28;20050;-72
2021/05/31 07:03:54;;;;;;;7.20;4.05;;;16.10;76.00;;;;;;5094816;28;20032;-80
2021/05/31 07:06:19;;;;;;;6.47;3.70;;;16.00;76.30;;;;;;5092346;28;20027;-74
2021/05/31 07:08:45;;;;;;;7.70;3.95;;;16.10;77.10;;;;;;5087285;28;20046;-76
2021/05/31 07:11:14;;;;;;;8.85;4.28;;;16.20;77.00;;;;;;5082557;28;20027;-81
2021/05/31 07:13:41;;;;;;;6.30;3.13;;;16.30;76.80;;;;;;5080120;28;20078;-79
2021/05/31 07:16:09;;;;;;;7.32;3.53;;;16.30;76.50;;;;;;5078755;28;20025;-79
2021/05/31 07:18:35;;;;;;;11.05;5.40;;;16.40;76.40;;;;;;5087911;28;20059;-78
2021/05/31 07:21:01;;;;;;;7.43;3.90;;;16.40;75.80;;;;;;5086348;28;20054;-71
2021/05/31 07:23:27;;;;;;;7.95;3.50;;;16.30;75.20;;;;;;5076979;28;20024;-72
2021/05/31 07:25:53;;;;;;;7.13;3.15;;;16.20;75.30;;;;;;5077272;28;20108;-71
2021/05/31 07:28:18;;;;;;;5.75;3.03;;;16.20;75.50;;;;;;5077818;28;20074;-72
2021/05/31 07:30:44;;;;;;;6.45;2.92;;;16.10;75.60;;;;;;5078726;28;20121;-74
2021/05/31 07:33:12;;;;;;;5.80;2.95;;;16.10;75.30;;;;;;5089802;28;20047;-72
2021/05/31 07:35:38;;;;;;;6.10;2.70;;;16.00;75.40;;;;;;5088041;28;20020;-72
2021/05/31 07:38:04;;;;;;;6.53;2.75;;;16.10;74.80;;;;;;5088051;28;20040;-78
2021/05/31 07:40:30;;;;;;;10.70;2.47;;;16.10;74.60;;;;;;5086228;28;20035;-72
2021/05/31 07:42:56;;;;;;;5.78;2.70;;;16.10;74.60;;;;;;5089253;28;20746;-72
2021/05/31 07:45:22;;;;;;;9.32;2.88;;;16.20;74.40;;;;;;5082200;28;20371;-79
2021/05/31 07:47:48;;;;;;;6.30;2.47;;;16.30;75.00;;;;;;5085845;28;20052;-78
2021/05/31 07:50:15;;;;;;;4.82;2.78;;;16.40;74.50;;;;;;5086406;28;20024;-80
2021/05/31 07:52:41;;;;;;;8.63;3.42;;;16.60;74.30;;;;;;5084855;28;20040;-79
2021/05/31 07:55:11;;;;;;;8.30;3.63;;;16.80;74.10;;;;;;5070146;28;20032;-80
2021/05/31 07:57:39;;;;;;;4.85;3.10;;;16.90;73.70;;;;;;5071444;28;20024;-79
2021/05/31 08:00:07;;;;;;;4.93;2.40;;;17.00;73.00;;;;;;5072526;28;20093;-80
2021/05/31 08:02:33;;;;;;;2.85;1.98;;;17.00;72.20;;;;;;5075360;28;20028;-79
2021/05/31 08:04:58;;;;;;;4.63;2.30;;;17.00;71.70;;;;;;5072303;28;20036;-79
2021/05/31 08:07:24;;;;;;;4.65;3.00;;;17.00;71.60;;;;;;5070775;28;20139;-80
2021/05/31 08:09:50;;;;;;;6.88;3.38;;;16.90;71.50;;;;;;5072663;28;20025;-79
2021/05/31 08:12:16;;;;;;;3.55;2.65;;;16.90;71.80;;;;;;5073084;28;20166;-79
2021/05/31 08:14:41;;;;;;;4.47;2.13;;;16.90;71.60;;;;;;5072328;28;20025;-80
2021/05/31 08:17:59;;;;;;;4.13;2.40;;;16.80;71.50;;;;;;5083090;28;20032;-80
2021/05/31 08:38:32;;;;;;;;;;;;;;;;;;;;;
2021/05/31 08:41:23;;;;;;;;;;;;;;;;;;;;;
2021/05/31 08:43:49;;;;;;;6.63;3.65;;;16.30;71.90;;;;;;5072844;28;20039;-81
2021/05/31 08:46:15;;;;;;;6.30;3.22;;;16.20;72.00;;;;;;5071781;28;20096;-80
2021/05/31 08:48:40;;;;;;;8.85;2.97;;;16.10;72.40;;;;;;5072088;28;20020;-80
2021/05/31 08:51:09;;;;;;;5.43;3.00;;;16.10;73.00;;;;;;5072438;28;20029;-80
2021/05/31 08:53:36;;;;;;;4.22;2.72;;;16.00;73.20;;;;;;5072518;28;20084;-78
2021/05/31 08:56:05;;;;;;;4.25;2.55;;;16.00;72.80;;;;;;5073274;28;20016;-79
2021/05/31 08:58:31;;;;;;;5.75;2.85;;;16.00;72.90;;;;;;5072445;28;20103;-79
2021/05/31 09:01:04;;;;;;;4.38;2.38;;;16.10;73.00;;;;;;5072565;28;20214;-79
2021/05/31 09:03:31;;;;;;;4.60;2.35;;;16.10;72.80;;;;;;5072352;28;20063;-79
2021/05/31 09:06:02;;;;;;;6.78;2.70;;;16.20;73.00;;;;;;5072303;28;20027;-78
2021/05/31 09:08:29;;;;;;;4.47;2.47;;;16.20;72.10;;;;;;5072268;28;20104;-80
2021/05/31 09:11:03;;;;;;;4.18;2.72;;;16.20;72.10;;;;;;5071065;28;20025;-79
2021/05/31 09:13:32;;;;;;;4.32;2.30;;;16.30;72.30;;;;;;5071378;28;20378;-79
2021/05/31 09:16:18;;;;;;;5.13;2.85;;;16.20;71.40;;;;;;5072393;28;20104;-79
2021/05/31 09:18:49;;;;;;;6.43;2.30;;;16.20;71.60;;;;;;5071587;28;20024;-79
2021/05/31 09:21:20;;;;;;;3.72;2.40;;;16.20;71.30;;;;;;5071981;28;20036;-79
2021/05/31 09:23:48;;;;;;;4.97;2.60;;;16.30;71.60;;;;;;5071181;28;20039;-79
2021/05/31 09:26:14;;;;;;;5.72;2.20;;;16.40;71.60;;;;;;5071786;28;20425;-79
2021/05/31 09:28:51;;;;;;;4.28;2.40;;;16.50;71.30;;;;;;5070410;28;20024;-79
2021/05/31 09:31:18;;;;;;;3.67;2.20;;;16.50;71.00;;;;;;5071784;28;20120;-78
2021/05/31 09:33:54;;;;;;;3.65;2.17;;;16.50;70.60;;;;;;5070734;28;20036;-78
2021/05/31 09:36:20;;;;;;;4.47;2.63;;;16.50;71.00;;;;;;5072427;28;20037;-78
2021/05/31 09:38:48;;;;;;;4.22;2.10;;;16.50;71.10;;;;;;5071205;28;20031;-78
2021/05/31 09:41:31;;;;;;;4.35;1.85;;;16.60;71.10;;;;;;5072157;28;20021;-78
2021/05/31 09:44:01;;;;;;;5.60;2.50;;;16.60;70.60;;;;;;5072271;28;20024;-78
2021/05/31 09:46:41;;;;;;;4.20;2.15;;;16.70;70.50;;;;;;5070008;28;20497;-79
2021/05/31 09:49:21;;;;;;;4.65;2.60;;;16.90;70.60;;;;;;5071906;28;20157;-79
2021/05/31 09:51:59;;;;;;;4.50;2.95;;;17.10;70.10;;;;;;5070590;28;20119;-79
2021/05/31 09:54:35;;;;;;;3.22;1.92;;;17.20;69.20;;;;;;5076110;28;20495;-79
2021/05/31 09:57:22;;;;;;;3.30;1.90;;;17.20;68.50;;;;;;5081515;28;20025;-78
2021/05/31 09:59:51;;;;;;;2.67;1.83;;;17.20;68.50;;;;;;5075596;28;20035;-78
2021/05/31 10:02:24;;;;;;;4.43;2.17;;;17.30;68.10;;;;;;5075420;28;20037;-78
2021/05/31 10:04:59;;;;;;;21.13;4.63;;;17.30;68.20;;;;;;5075302;28;20020;-80
2021/05/31 10:09:57;;;;;;;6.20;2.28;;;17.60;68.10;;;;;;5075791;28;20471;-79
2021/05/31 10:12:25;;;;;;;4.75;2.10;;;17.70;67.20;;;;;;5075227;28;20124;-79
2021/05/31 10:14:51;;;;;;;5.70;1.85;;;17.80;67.00;;;;;;5075381;28;20031;-79
2021/05/31 10:17:17;;;;;;;2.13;1.50;;;17.90;65.90;;;;;;5073928;28;20429;-79
2021/05/31 10:19:45;;;;;;;4.47;1.77;;;17.90;65.20;;;;;;5074892;28;20037;-79
2021/05/31 10:22:15;;;;;;;3.45;1.77;;;18.00;64.80;;;;;;5075549;28;20383;-80
2021/05/31 10:24:41;;;;;;;5.05;2.00;;;18.10;65.20;;;;;;5072761;28;20047;-79
2021/05/31 10:27:13;;;;;;;3.40;1.85;;;18.20;65.10;;;;;;5075196;28;20066;-78
2021/05/31 10:29:43;;;;;;;4.78;2.08;;;18.20;64.80;;;;;;5074832;28;20090;-80
2021/05/31 10:32:12;;;;;;;3.05;1.90;;;18.10;65.20;;;;;;5086469;28;20381;-78
2021/05/31 10:34:48;;;;;;;3.25;1.50;;;18.10;65.50;;;;;;5074800;28;20404;-79
2021/05/31 10:37:21;;;;;;;3.53;2.13;;;18.00;64.50;;;;;;5077512;28;20386;-78
2021/05/31 10:40:05;;;;;;;5.65;2.25;;;18.00;64.60;;;;;;5079767;28;20035;-81
2021/05/31 10:42:55;;;;;;;3.90;1.90;;;18.00;64.40;;;;;;5074359;28;20033;-79
2021/05/31 10:45:27;;;;;;;4.13;1.60;;;18.10;64.40;;;;;;5074255;28;20027;-79
2021/05/31 10:47:59;;;;;;;3.53;1.92;;;18.10;64.20;;;;;;5074823;28;20100;-78
2021/05/31 10:50:30;;;;;;;3.60;1.58;;;18.20;64.30;;;;;;5074638;28;20033;-79
2021/05/31 10:52:56;;;;;;;3.38;1.90;;;18.20;63.80;;;;;;5074476;28;20041;-78
2021/05/31 10:55:25;;;;;;;2.67;1.70;;;18.30;64.30;;;;;;5074446;28;20020;-77
2021/05/31 10:57:51;;;;;;;4.43;1.83;;;18.50;64.40;;;;;;5073046;28;20028;-78
2021/05/31 11:00:29;;;;;;;2.80;1.95;;;18.60;64.00;;;;;;5074498;28;20447;-78
2021/05/31 11:03:06;;;;;;;2.92;1.85;;;18.70;63.50;;;;;;5072943;28;20123;-78
2021/05/31 11:05:34;;;;;;;2.97;1.75;;;18.70;62.80;;;;;;5081254;28;20444;-80
2021/05/31 11:08:00;;;;;;;4.43;1.80;;;18.80;62.70;;;;;;5073779;28;20021;-79
2021/05/31 11:10:30;;;;;;;3.03;2.00;;;18.80;62.70;;;;;;5073515;28;20470;-80
2021/05/31 11:13:07;;;;;;;2.35;1.75;;;18.90;62.60;;;;;;5073651;28;20504;-79
2021/05/31 11:15:34;;;;;;;2.22;1.40;;;19.00;61.90;;;;;;5074245;28;20462;-79
2021/05/31 11:18:00;;;;;;;2.17;1.30;;;18.90;61.50;;;;;;5073611;28;20050;-79
2021/05/31 11:20:28;;;;;;;2.10;1.40;;;18.90;61.60;;;;;;5073708;28;20084;-80
2021/05/31 11:23:03;;;;;;;5.35;1.92;;;19.00;62.20;;;;;;5085031;28;20119;-79
2021/05/31 11:25:30;;;;;;;5.43;2.00;;;19.10;61.20;;;;;;5089803;28;20017;-80
2021/05/31 11:27:58;;;;;;;3.45;1.50;;;19.30;61.00;;;;;;5073821;28;20037;-80
2021/05/31 11:30:27;;;;;;;3.85;2.08;;;19.50;60.70;;;;;;5085557;28;20027;-80
2021/05/31 11:32:55;;;;;;;6.43;1.95;;;19.80;60.10;;;;;;5073730;28;20046;-80
2021/05/31 11:35:22;;;;;;;2.72;1.50;;;19.80;59.30;;;;;;5073615;28;20020;-79
2021/05/31 11:37:49;;;;;;;2.38;1.13;;;19.90;58.80;;;;;;5072437;28;20456;-79
2021/05/31 11:40:21;;;;;;;1.58;1.10;;;19.90;58.10;;;;;;5073527;28;20103;-80
2021/05/31 11:42:51;;;;;;;1.35;1.10;;;19.80;58.40;;;;;;5072763;28;20060;-80
2021/05/31 11:45:21;;;;;;;2.60;1.10;;;19.70;58.20;;;;;;5072393;28;20029;-80
2021/05/31 11:47:54;;;;;;;1.63;1.08;;;19.80;58.20;;;;;;5072614;28;20479;-80
2021/05/31 11:50:21;;;;;;;3.25;1.20;;;19.80;57.40;;;;;;5072008;28;20063;-80
2021/05/31 11:52:47;;;;;;;2.45;1.00;;;19.70;57.20;;;;;;5072094;28;20081;-79
2021/05/31 11:55:32;;;;;;;2.30;1.17;;;19.60;57.40;;;;;;5072705;28;20115;-79
2021/05/31 11:57:58;;;;;;;1.95;1.08;;;19.50;57.70;;;;;;5073060;28;20032;-79
2021/05/31 12:00:26;;;;;;;2.38;0.82;;;19.60;58.30;;;;;;5072033;28;20470;-79
2021/05/31 12:02:53;;;;;;;3.10;1.13;;;19.60;57.80;;;;;;5072992;28;20016;-79
2021/05/31 12:05:31;;;;;;;2.85;1.75;;;19.50;58.00;;;;;;5082466;28;20117;-79
2021/05/31 12:08:03;;;;;;;3.38;1.55;;;19.30;58.30;;;;;;5074982;28;20067;-79
2021/05/31 12:10:29;;;;;;;4.20;2.30;;;19.20;58.40;;;;;;5071656;28;20024;-80
2021/05/31 12:12:55;;;;;;;1.70;1.00;;;19.10;58.70;;;;;;5074768;28;20394;-80
2021/05/31 12:15:21;;;;;;;1.10;1.00;;;19.00;58.80;;;;;;5072722;28;20029;-79
2021/05/31 12:17:47;;;;;;;1.13;0.90;;;18.90;59.00;;;;;;5072957;28;20024;-80
2021/05/31 12:20:13;;;;;;;2.97;1.23;;;18.80;59.40;;;;;;5072353;28;20402;-79
2021/05/31 12:22:39;;;;;;;2.88;1.40;;;18.70;59.80;;;;;;5071465;28;20055;-79
2021/05/31 12:25:08;;;;;;;1.92;1.13;;;18.60;59.90;;;;;;5072766;28;20119;-80
2021/05/31 12:27:36;;;;;;;1.60;1.13;;;18.40;59.90;;;;;;5073176;28;20025;-79
2021/05/31 12:30:07;;;;;;;4.25;1.60;;;18.30;60.20;;;;;;5073008;28;20074;-80
2021/05/31 12:32:34;;;;;;;3.20;1.35;;;18.30;60.80;;;;;;5080942;28;20155;-80
2021/05/31 12:35:00;;;;;;;2.40;1.40;;;18.40;61.40;;;;;;5072393;28;20064;-79
2021/05/31 12:37:33;;;;;;;2.75;1.10;;;18.50;61.90;;;;;;5073310;28;20036;-79
2021/05/31 12:40:04;;;;;;;5.82;1.40;;;18.50;61.20;;;;;;5075531;28;20091;-80
2021/05/31 12:42:31;;;;;;;3.00;1.10;;;18.50;61.00;;;;;;5071809;28;20029;-80
2021/05/31 12:45:23;;;;;;;3.70;1.17;;;18.60;61.10;;;;;;5072449;28;20031;-79
2021/05/31 12:47:50;;;;;;;5.13;2.03;;;18.60;61.00;;;;;;5084958;28;20048;-79
2021/05/31 12:50:32;;;;;;;2.92;1.30;;;18.60;61.90;;;;;;5078908;28;20031;-79
2021/05/31 12:53:09;;;;;;;3.58;1.40;;;18.40;61.30;;;;;;5070946;28;20117;-79
2021/05/31 12:55:38;;;;;;;3.28;1.35;;;18.30;62.10;;;;;;5071147;28;20166;-80
2021/05/31 12:58:17;;;;;;;1.98;0.90;;;18.40;62.30;;;;;;5072848;28;20016;-79
2021/05/31 13:00:44;;;;;;;3.72;1.42;;;18.40;62.30;;;;;;5071009;28;20039;-80
2021/05/31 13:03:12;;;;;;;4.28;1.60;;;18.30;62.10;;;;;;5071657;28;20029;-79
2021/05/31 13:05:40;;;;;;;4.15;1.50;;;18.20;62.10;;;;;;5072480;28;20066;-79
2021/05/31 13:08:08;;;;;;;1.50;1.10;;;18.00;63.10;;;;;;5070803;28;20029;-79
2021/05/31 13:10:41;;;;;;;1.92;1.08;;;18.10;63.00;;;;;;5070789;28;20029;-80
2021/05/31 13:13:15;;;;;;;1.73;0.82;;;18.00;62.80;;;;;;5072365;28;20059;-80
2021/05/31 13:15:43;;;;;;;2.10;1.23;;;17.90;63.10;;;;;;5072159;28;20459;-79
2021/05/31 13:18:21;;;;;;;4.90;1.00;;;17.90;64.10;;;;;;5070901;28;20466;-79
2021/05/31 13:20:50;;;;;;;1.10;1.00;;;17.90;63.80;;;;;;5072145;28;20056;-79
2021/05/31 13:23:17;;;;;;;3.53;1.30;;;17.90;63.90;;;;;;5072403;28;20065;-79
2021/05/31 13:25:48;;;;;;;2.00;1.20;;;17.70;63.50;;;;;;5071631;28;20025;-79
2021/05/31 13:28:19;;;;;;;1.40;1.00;;;17.70;63.50;;;;;;5070556;28;20049;-80
2021/05/31 13:30:48;;;;;;;2.35;0.90;;;17.70;63.60;;;;;;5071708;28;20021;-80
2021/05/31 13:33:14;;;;;;;3.60;1.20;;;17.80;63.30;;;;;;5074476;28;20086;-80